Time;durP1;ratioP1;P1;durP2;ratioP2;P2;SDS_P1;SDS_P2;PMS_P1;PMS_P2;Temp;Humidity;BMP_temperature;BMP_pressure;BME280_temperature;BME280_humidity;BME280_pressure;Samples;Min_cycle;Max_cycle;Signal;HPM_P1;HPM_P2
2024/01/13 00:02:12;;;;;;;15.67;3.17;;;2.40;99.90;;;;;;5006130;28;20447;-65
2024/01/13 00:04:43;;;;;;;20.23;6.73;;;2.40;99.90;;;;;;5010050;28;20459;-66
2024/01/13 00:07:10;;;;;;;28.57;6.53;;;2.50;99.90;;;;;;5015740;28;20485;-67
2024/01/13 00:09:37;;;;;;;15.57;5.90;;;2.50;99.90;;;;;;5015438;28;20471;-67
2024/01/13 00:12:05;;;;;;;10.13;5.00;;;2.50;99.90;;;;;;5016553;28;20445;-66
2024/01/13 00:14:32;;;;;;;10.63;4.20;;;2.50;99.90;;;;;;5016688;28;20451;-66
2024/01/13 00:17:02;;;;;;;9.83;5.87;;;2.40;99.90;;;;;;5005607;28;20435;-65
2024/01/13 00:19:29;;;;;;;9.87;4.77;;;3.80;99.90;;;;;;5010907;28;20494;-65
2024/01/13 00:21:57;;;;;;;17.87;5.03;;;2.50;99.90;;;;;;5014223;28;20903;-65
2024/01/13 00:24:24;;;;;;;14.13;6.90;;;2.50;99.90;;;;;;5015494;28;20431;-67
2024/01/13 00:26:51;;;;;;;10.40;4.20;;;2.50;99.90;;;;;;5014460;28;20478;-66
2024/01/13 00:29:18;;;;;;;9.00;5.00;;;2.60;99.90;;;;;;5015357;28;20456;-66
2024/01/13 00:31:44;;;;;;;18.13;4.87;;;2.50;99.90;;;;;;5016016;28;20443;-67
2024/01/13 00:34:11;;;;;;;12.80;5.40;;;2.60;99.90;;;;;;5015788;28;20448;-66
2024/01/13 00:36:38;;;;;;;20.13;5.70;;;2.60;99.90;;;;;;5010092;28;20475;-65
2024/01/13 00:39:07;;;;;;;16.40;5.47;;;2.60;99.90;;;;;;5002587;28;20494;-67
2024/01/13 00:41:34;;;;;;;3.47;2.70;;;2.60;99.90;;;;;;5003050;28;20463;-64
2024/01/13 00:44:01;;;;;;;5.23;2.13;;;2.60;99.90;;;;;;5000839;28;20450;-66
2024/01/13 00:46:28;;;;;;;9.70;4.67;;;2.60;99.90;;;;;;5012496;28;20482;-64
2024/01/13 00:48:55;;;;;;;7.03;4.27;;;2.60;99.90;;;;;;5016988;28;20475;-65
2024/01/13 00:51:23;;;;;;;12.63;5.10;;;2.60;99.90;;;;;;5015806;28;20459;-65
2024/01/13 00:53:49;;;;;;;13.47;5.57;;;2.60;99.90;;;;;;5017368;28;20477;-65
2024/01/13 00:56:18;;;;;;;5.50;2.63;;;2.60;99.90;;;;;;5009228;28;20449;-65
2024/01/13 00:58:45;;;;;;;15.30;3.77;;;2.60;99.90;;;;;;5016755;28;20700;-65
2024/01/13 01:01:14;;;;;;;7.83;4.33;;;2.60;99.90;;;;;;5016817;28;20490;-65
2024/01/13 01:03:41;;;;;;;9.93;4.43;;;2.60;99.90;;;;;;5016601;28;20451;-66
2024/01/13 01:06:08;;;;;;;6.97;4.30;;;2.70;99.90;;;;;;5019363;28;20480;-65
2024/01/13 01:08:38;;;;;;;9.60;3.30;;;2.70;99.90;;;;;;5019368;28;20464;-65
2024/01/13 01:11:05;;;;;;;12.90;4.70;;;2.70;99.90;;;;;;5018926;28;20447;-66
2024/01/13 01:13:33;;;;;;;6.40;3.43;;;2.70;99.90;;;;;;5017728;28;20467;-64
2024/01/13 01:16:00;;;;;;;14.83;4.07;;;2.70;99.90;;;;;;5016617;28;20465;-65
2024/01/13 01:18:27;;;;;;;9.43;4.20;;;2.70;99.90;;;;;;5018098;28;20484;-67
2024/01/13 01:20:54;;;;;;;6.80;3.57;;;2.70;99.90;;;;;;5018458;28;20478;-65
2024/01/13 01:23:21;;;;;;;5.23;2.97;;;2.70;99.90;;;;;;5019397;28;20487;-65
2024/01/13 01:25:53;;;;;;;9.43;4.07;;;2.60;99.90;;;;;;5018495;28;20493;-67
2024/01/13 01:28:22;;;;;;;7.47;2.80;;;2.60;99.90;;;;;;5018484;28;20566;-65
2024/01/13 01:30:50;;;;;;;14.90;3.93;;;2.70;99.90;;;;;;5018699;28;20471;-66
2024/01/13 01:33:17;;;;;;;23.70;3.80;;;2.70;99.90;;;;;;5017765;28;20470;-68
2024/01/13 01:35:48;;;;;;;9.83;4.40;;;2.70;99.90;;;;;;5017866;28;20451;-66
2024/01/13 01:38:15;;;;;;;8.50;3.53;;;2.70;99.90;;;;;;5018237;28;20464;-66
2024/01/13 01:40:46;;;;;;;8.20;3.50;;;2.70;99.90;;;;;;5017414;28;20487;-66
2024/01/13 01:43:13;;;;;;;7.13;4.43;;;2.80;99.90;;;;;;5006792;28;20460;-65
2024/01/13 01:45:40;;;;;;;6.37;3.20;;;2.80;99.90;;;;;;4999449;28;20480;-67
2024/01/13 01:48:09;;;;;;;9.07;3.40;;;2.80;99.90;;;;;;4998690;28;20474;-66
2024/01/13 01:50:36;;;;;;;5.37;2.80;;;2.80;99.90;;;;;;4998741;28;20459;-66
2024/01/13 01:53:05;;;;;;;8.43;2.87;;;2.80;99.90;;;;;;4998590;28;20454;-66
2024/01/13 01:55:36;;;;;;;11.73;4.33;;;2.80;99.90;;;;;;4997762;28;20537;-64
2024/01/13 01:58:06;;;;;;;11.40;3.37;;;2.80;99.90;;;;;;5010247;28;20488;-66
2024/01/13 02:00:33;;;;;;;10.70;4.43;;;2.80;99.90;;;;;;5018172;28;20476;-65
2024/01/13 02:03:00;;;;;;;6.70;2.93;;;2.80;99.90;;;;;;5017756;28;20471;-67
2024/01/13 02:05:29;;;;;;;5.00;2.50;;;2.80;99.90;;;;;;5017129;28;20480;-66
2024/01/13 02:07:57;;;;;;;4.97;2.07;;;2.80;99.90;;;;;;5016760;28;20460;-65
2024/01/13 02:10:24;;;;;;;8.53;3.47;;;2.80;99.90;;;;;;5016812;28;20437;-65
2024/01/13 02:12:51;;;;;;;4.90;2.40;;;2.80;99.90;;;;;;5017506;28;20483;-66
2024/01/13 02:15:21;;;;;;;6.73;4.27;;;2.80;99.90;;;;;;5017459;28;20454;-67
2024/01/13 02:17:51;;;;;;;9.87;3.40;;;2.80;99.90;;;;;;5016979;28;20462;-66
2024/01/13 02:20:18;;;;;;;16.07;3.00;;;2.90;99.90;;;;;;5017212;28;20486;-65
2024/01/13 02:22:46;;;;;;;12.03;5.00;;;2.90;99.90;;;;;;5017022;28;20462;-66
2024/01/13 02:25:13;;;;;;;9.63;3.33;;;2.90;99.90;;;;;;5016757;28;20471;-66
2024/01/13 02:27:40;;;;;;;8.27;2.83;;;2.90;99.90;;;;;;5017133;28;20444;-68
2024/01/13 02:30:08;;;;;;;7.33;3.20;;;2.90;99.90;;;;;;5016713;28;20453;-67
2024/01/13 02:32:34;;;;;;;5.73;3.23;;;2.90;99.90;;;;;;5017422;28;20545;-67
2024/01/13 02:35:03;;;;;;;8.03;2.50;;;2.90;99.90;;;;;;5017111;28;20457;-66
2024/01/13 02:37:30;;;;;;;10.77;3.80;;;2.80;99.90;;;;;;5016844;28;20541;-65
2024/01/13 02:39:58;;;;;;;4.07;2.57;;;2.90;99.90;;;;;;5017031;28;20774;-68
2024/01/13 02:42:25;;;;;;;6.90;3.07;;;2.90;99.90;;;;;;5017787;28;20459;-68
2024/01/13 02:44:51;;;;;;;6.27;2.43;;;2.80;99.90;;;;;;5017612;28;20485;-65
2024/01/13 02:47:29;;;;;;;4.83;2.50;;;2.80;99.90;;;;;;5017589;28;20446;-66
2024/01/13 02:49:56;;;;;;;7.87;3.80;;;2.80;99.90;;;;;;5018119;28;20444;-66
2024/01/13 02:52:23;;;;;;;5.20;2.93;;;2.80;99.90;;;;;;5018136;28;20480;-67
2024/01/13 02:54:52;;;;;;;7.40;2.87;;;2.80;99.90;;;;;;5017885;28;20438;-65
2024/01/13 02:57:21;;;;;;;7.60;3.00;;;2.80;99.90;;;;;;5017435;28;20506;-66
2024/01/13 02:59:48;;;;;;;7.13;3.30;;;2.80;99.90;;;;;;5017688;28;20470;-62
2024/01/13 03:02:15;;;;;;;4.53;3.23;;;2.80;99.90;;;;;;5018070;28;20451;-66
2024/01/13 03:04:41;;;;;;;4.77;3.13;;;2.80;99.90;;;;;;5018571;28;20505;-67
2024/01/13 03:07:08;;;;;;;5.57;2.30;;;2.80;99.90;;;;;;5019781;28;20443;-66
2024/01/13 03:09:37;;;;;;;6.10;2.60;;;2.80;99.90;;;;;;5269771;23;21472;-73
2024/01/13 03:12:08;;;;;;;6.80;2.40;;;3.00;99.90;;;;;;4976289;28;20481;-72
2024/01/13 03:14:37;;;;;;;3.30;2.30;;;2.80;99.90;;;;;;4975666;28;20924;-73
2024/01/13 03:17:05;;;;;;;3.83;2.00;;;3.50;99.90;;;;;;4977635;28;20543;-72
2024/01/13 03:19:32;;;;;;;7.23;2.10;;;3.20;99.90;;;;;;4977059;28;20759;-70
2024/01/13 03:22:00;;;;;;;2.90;1.70;;;2.50;99.90;;;;;;4958432;28;20504;-70
2024/01/13 03:25:19;;;;;;;6.93;2.33;;;2.90;99.90;;;;;;4975709;28;20432;-70
2024/01/13 03:27:46;;;;;;;10.67;2.30;;;2.80;99.90;;;;;;4975302;28;20531;-71
2024/01/13 03:30:15;;;;;;;5.20;2.37;;;2.80;99.90;;;;;;4977858;28;20460;-70
2024/01/13 03:32:50;;;;;;;5.20;2.80;;;2.70;99.90;;;;;;4977313;28;20766;-69
2024/01/13 03:35:17;;;;;;;16.33;4.10;;;2.70;99.90;;;;;;4976385;28;20492;-71
2024/01/13 03:37:44;;;;;;;3.67;3.03;;;2.70;99.90;;;;;;4977800;28;20479;-70
2024/01/13 03:40:17;;;;;;;3.40;3.07;;;2.70;99.90;;;;;;4978152;28;20842;-70
2024/01/13 03:42:45;;;;;;;4.67;3.27;;;2.80;99.90;;;;;;4986142;28;20449;-70
2024/01/13 03:45:13;;;;;;;3.90;2.27;;;2.80;99.90;;;;;;4998980;28;20434;-71
2024/01/13 03:47:41;;;;;;;8.27;3.30;;;2.80;99.90;;;;;;4988001;28;20472;-71
2024/01/13 03:50:09;;;;;;;3.23;2.07;;;2.80;99.90;;;;;;4992505;28;20439;-70
2024/01/13 03:52:36;;;;;;;6.03;3.30;;;2.80;99.90;;;;;;4999962;28;20452;-71
2024/01/13 03:55:06;;;;;;;3.40;2.13;;;2.70;99.90;;;;;;5000097;28;20424;-70
2024/01/13 03:57:34;;;;;;;6.10;2.63;;;2.70;99.90;;;;;;4999515;28;20453;-69
2024/01/13 04:00:01;;;;;;;4.53;2.90;;;2.70;99.90;;;;;;4999905;28;20431;-70
2024/01/13 04:02:29;;;;;;;5.13;2.33;;;2.70;99.90;;;;;;4999183;28;20408;-70
2024/01/13 04:05:45;;;;;;;4.10;2.43;;;2.70;99.90;;;;;;4984494;28;20492;-71
2024/01/13 04:08:12;;;;;;;6.00;2.57;;;2.70;99.90;;;;;;4976235;28;20519;-71
2024/01/13 04:10:41;;;;;;;4.80;3.40;;;2.70;99.90;;;;;;4975682;28;20471;-71
2024/01/13 04:13:11;;;;;;;4.60;2.37;;;2.70;99.90;;;;;;4975710;28;20453;-71
2024/01/13 04:15:49;;;;;;;4.87;3.33;;;2.60;99.90;;;;;;4975360;28;20455;-71
2024/01/13 04:19:05;;;;;;;5.73;3.10;;;2.60;99.90;;;;;;4975015;28;21039;-71
2024/01/13 04:21:34;;;;;;;4.40;2.90;;;2.60;99.90;;;;;;4974097;28;20481;-71
2024/01/13 04:24:19;;;;;;;3.67;2.10;;;2.60;99.90;;;;;;4975019;28;20470;-71
2024/01/13 04:26:46;;;;;;;3.80;2.13;;;2.60;99.90;;;;;;4975044;28;20532;-71
2024/01/13 04:29:16;;;;;;;4.03;2.43;;;2.60;99.90;;;;;;4974536;28;20458;-71
2024/01/13 04:32:02;;;;;;;4.57;2.43;;;2.60;99.90;;;;;;4974917;28;20476;-71
2024/01/13 04:34:32;;;;;;;5.87;2.83;;;2.60;99.90;;;;;;4973683;28;20837;-71
2024/01/13 04:37:01;;;;;;;7.93;2.10;;;2.60;99.90;;;;;;4974680;28;20473;-71
2024/01/13 04:39:46;;;;;;;3.80;2.20;;;2.60;99.90;;;;;;4974871;28;20437;-71
2024/01/13 04:42:13;;;;;;;8.37;2.80;;;2.60;99.90;;;;;;4957233;28;20487;-72
2024/01/13 04:44:40;;;;;;;9.23;2.90;;;2.60;99.90;;;;;;4957566;28;20443;-70
2024/01/13 04:47:10;;;;;;;5.60;2.40;;;2.50;99.90;;;;;;4974448;28;20545;-71
2024/01/13 04:49:37;;;;;;;4.77;2.87;;;2.60;99.90;;;;;;4978471;28;20458;-70
2024/01/13 04:52:09;;;;;;;4.07;2.60;;;2.50;99.90;;;;;;4974441;28;20428;-70
2024/01/13 04:54:49;;;;;;;5.93;2.50;;;2.50;99.90;;;;;;4974472;28;20471;-71
2024/01/13 04:57:16;;;;;;;4.87;3.23;;;2.50;99.90;;;;;;4974254;28;20459;-71
2024/01/13 04:59:47;;;;;;;2.50;2.07;;;2.50;99.90;;;;;;4957286;28;20453;-70
2024/01/13 05:02:53;;;;;;;3.60;2.17;;;2.50;99.90;;;;;;4974355;28;20983;-70
2024/01/13 05:05:20;;;;;;;3.57;2.50;;;2.50;99.90;;;;;;4974206;28;20937;-71
2024/01/13 05:07:50;;;;;;;2.87;2.37;;;2.50;99.90;;;;;;4974055;28;20988;-70
2024/01/13 05:10:18;;;;;;;4.30;2.67;;;2.60;99.90;;;;;;4974132;28;20932;-70
2024/01/13 05:16:20;;;;;;;5.57;2.53;;;2.60;99.90;;;;;;4974157;28;20837;-71
2024/01/13 05:19:09;;;;;;;7.27;3.90;;;2.60;99.90;;;;;;4957089;28;20489;-70
2024/01/13 05:21:38;;;;;;;4.80;2.50;;;2.60;99.90;;;;;;4974420;28;20495;-71
2024/01/13 05:24:07;;;;;;;6.03;3.20;;;2.60;99.90;;;;;;4974443;28;20484;-70
2024/01/13 05:26:56;;;;;;;5.47;3.07;;;2.50;99.90;;;;;;4956901;28;20460;-71
2024/01/13 05:29:25;;;;;;;5.53;2.40;;;2.60;99.90;;;;;;4974117;28;20457;-71
2024/01/13 05:32:06;;;;;;;5.23;3.30;;;2.60;99.90;;;;;;4976688;28;20426;-71
2024/01/13 05:34:33;;;;;;;3.07;2.10;;;2.50;99.90;;;;;;4978449;28;20506;-70
2024/01/13 05:37:21;;;;;;;3.53;2.70;;;2.50;99.90;;;;;;4980209;28;20521;-70
2024/01/13 05:39:49;;;;;;;2.83;1.47;;;2.50;99.90;;;;;;4981277;28;20438;-70
2024/01/13 05:42:25;;;;;;;3.90;2.30;;;2.60;99.90;;;;;;4978247;28;20507;-70
2024/01/13 05:44:58;;;;;;;5.83;2.67;;;2.60;99.90;;;;;;4978684;28;20477;-70
2024/01/13 05:47:25;;;;;;;3.20;1.77;;;2.50;99.90;;;;;;4970793;28;20495;-70
2024/01/13 05:50:30;;;;;;;3.73;3.10;;;2.50;99.90;;;;;;4958830;29;20466;-70
2024/01/13 05:52:57;;;;;;;4.47;3.30;;;2.50;99.90;;;;;;4957746;29;20906;-70
2024/01/13 05:55:35;;;;;;;7.13;3.70;;;2.40;99.90;;;;;;4958080;29;20982;-69
2024/01/13 05:58:03;;;;;;;6.67;3.13;;;2.50;99.90;;;;;;4957774;28;20973;-70
2024/01/13 06:00:43;;;;;;;4.13;3.10;;;2.50;99.90;;;;;;4956052;29;20462;-69
2024/01/13 06:03:14;;;;;;;3.87;2.60;;;2.50;99.90;;;;;;4958059;29;20442;-70
2024/01/13 06:05:41;;;;;;;6.20;3.17;;;2.50;99.90;;;;;;4958243;29;20430;-70
2024/01/13 06:08:09;;;;;;;5.57;3.80;;;2.50;99.90;;;;;;4958397;28;20530;-71
2024/01/13 06:10:40;;;;;;;5.77;2.70;;;2.50;99.90;;;;;;4957789;29;20445;-70
2024/01/13 06:13:11;;;;;;;4.30;3.13;;;2.50;99.90;;;;;;4957550;29;20459;-71
2024/01/13 06:15:38;;;;;;;6.50;3.90;;;2.50;99.90;;;;;;4957594;29;20859;-70
2024/01/13 06:18:14;;;;;;;4.43;2.60;;;2.60;99.90;;;;;;4957122;28;20470;-69
2024/01/13 06:20:43;;;;;;;10.30;5.10;;;2.60;99.90;;;;;;4957703;29;20471;-72
2024/01/13 06:23:10;;;;;;;13.17;4.50;;;2.60;99.90;;;;;;4958026;29;20433;-72
2024/01/13 06:25:41;;;;;;;7.60;4.03;;;2.60;99.90;;;;;;4958025;29;20527;-70
2024/01/13 06:28:51;;;;;;;9.27;4.90;;;2.60;99.90;;;;;;4957731;28;20468;-71
2024/01/13 06:31:18;;;;;;;5.17;4.13;;;2.60;99.90;;;;;;4957871;29;20570;-70
2024/01/13 06:33:45;;;;;;;6.20;3.50;;;2.60;99.90;;;;;;4957428;29;20938;-70
2024/01/13 06:36:15;;;;;;;7.20;3.93;;;2.60;99.90;;;;;;4957405;29;20432;-69
2024/01/13 06:38:42;;;;;;;7.50;4.63;;;2.60;99.90;;;;;;4956946;28;20469;-70
2024/01/13 06:41:12;;;;;;;6.40;3.37;;;2.50;99.90;;;;;;4956951;29;20888;-70
2024/01/13 06:43:39;;;;;;;7.07;2.67;;;2.60;99.90;;;;;;4955519;28;20467;-70
2024/01/13 06:46:08;;;;;;;3.70;3.17;;;2.60;99.90;;;;;;4956631;29;20463;-72
2024/01/13 06:48:44;;;;;;;5.70;3.60;;;2.60;99.90;;;;;;4959563;28;21042;-68
2024/01/13 06:51:30;;;;;;;4.53;2.50;;;2.60;99.90;;;;;;4962094;28;20435;-70
2024/01/13 06:53:58;;;;;;;7.00;3.77;;;2.60;99.90;;;;;;4964879;28;20472;-70
2024/01/13 06:56:31;;;;;;;3.20;2.07;;;2.60;99.90;;;;;;4970599;28;20866;-70
2024/01/13 06:59:01;;;;;;;3.90;3.13;;;2.60;99.90;;;;;;4975790;28;20470;-71
2024/01/13 07:01:28;;;;;;;3.83;2.50;;;2.50;99.90;;;;;;4976370;28;21024;-69
2024/01/13 07:03:58;;;;;;;7.47;4.37;;;2.60;99.90;;;;;;4975195;28;20940;-69
2024/01/13 07:06:25;;;;;;;5.40;2.90;;;2.60;99.90;;;;;;4975979;28;20490;-69
2024/01/13 07:08:53;;;;;;;4.47;3.50;;;2.60;99.90;;;;;;4975929;28;20930;-69
2024/01/13 07:11:20;;;;;;;4.83;2.67;;;2.60;99.90;;;;;;4975699;28;20482;-69
2024/01/13 07:13:49;;;;;;;5.70;1.93;;;2.60;99.90;;;;;;4975914;28;20845;-70
2024/01/13 07:16:20;;;;;;;2.93;2.13;;;2.50;99.90;;;;;;4975310;28;20483;-69
2024/01/13 07:18:47;;;;;;;3.60;2.70;;;2.60;99.90;;;;;;4964345;28;20496;-69
2024/01/13 07:21:23;;;;;;;3.93;2.60;;;2.60;99.90;;;;;;4975235;28;20957;-70
2024/01/13 07:23:50;;;;;;;5.83;2.30;;;2.60;99.90;;;;;;4969055;28;20883;-71
2024/01/13 07:26:38;;;;;;;5.97;2.40;;;2.60;99.90;;;;;;4964642;28;20464;-71
2024/01/13 07:29:07;;;;;;;4.70;3.03;;;2.60;99.90;;;;;;4970210;28;20949;-71
2024/01/13 07:31:47;;;;;;;4.77;3.10;;;2.60;99.90;;;;;;4984172;28;20471;-70
2024/01/13 07:34:14;;;;;;;4.20;2.60;;;2.60;99.90;;;;;;4975464;28;20437;-71
2024/01/13 07:36:44;;;;;;;4.23;3.00;;;2.60;99.90;;;;;;4975323;28;20470;-71
2024/01/13 07:39:10;;;;;;;3.53;2.00;;;2.60;99.90;;;;;;4960661;28;20445;-70
2024/01/13 07:41:37;;;;;;;3.60;2.50;;;2.60;99.90;;;;;;4966164;28;20472;-68
2024/01/13 07:44:26;;;;;;;6.33;3.50;;;2.60;99.90;;;;;;4975150;28;20930;-70
2024/01/13 07:47:03;;;;;;;4.77;2.70;;;2.60;99.90;;;;;;4974830;28;20505;-70
2024/01/13 07:49:30;;;;;;;3.73;2.30;;;2.60;99.90;;;;;;4963991;28;20459;-71
2024/01/13 07:51:58;;;;;;;3.30;2.77;;;2.70;99.90;;;;;;4975096;28;20457;-71
2024/01/13 07:54:25;;;;;;;2.53;1.27;;;2.70;99.90;;;;;;4975345;28;20439;-71
2024/01/13 07:57:07;;;;;;;4.13;2.13;;;2.70;99.90;;;;;;4964319;28;20477;-71
2024/01/13 07:59:35;;;;;;;3.40;1.90;;;2.70;99.90;;;;;;4956414;29;20770;-70
2024/01/13 08:02:02;;;;;;;5.33;2.97;;;2.70;99.90;;;;;;4956080;29;20997;-69
2024/01/13 08:04:48;;;;;;;2.70;1.73;;;2.70;99.90;;;;;;4955793;29;20436;-68
2024/01/13 08:07:36;;;;;;;5.93;1.63;;;2.70;99.90;;;;;;4974706;28;20576;-69
2024/01/13 08:10:04;;;;;;;2.27;1.83;;;2.70;99.90;;;;;;4975763;28;20436;-69
2024/01/13 08:12:40;;;;;;;2.60;1.70;;;2.70;99.90;;;;;;4975486;28;20477;-69
2024/01/13 08:15:09;;;;;;;2.87;1.73;;;2.80;99.90;;;;;;4958202;28;20474;-71
2024/01/13 08:17:53;;;;;;;1.70;1.37;;;2.80;99.90;;;;;;4958972;28;20891;-71
2024/01/13 08:20:20;;;;;;;2.97;1.47;;;2.80;99.90;;;;;;4955924;29;20426;-71
2024/01/13 08:22:48;;;;;;;3.90;1.93;;;2.80;99.90;;;;;;4956004;29;20515;-71
2024/01/13 08:25:16;;;;;;;2.67;1.90;;;2.70;99.90;;;;;;4938298;29;21016;-71
2024/01/13 08:27:56;;;;;;;2.77;2.07;;;2.70;99.90;;;;;;4955754;29;20552;-71
2024/01/13 08:30:27;;;;;;;2.97;2.50;;;2.70;99.90;;;;;;4963204;28;20856;-70
2024/01/13 08:33:22;;;;;;;2.17;1.50;;;2.70;99.90;;;;;;4988292;28;20454;-71
2024/01/13 08:36:08;;;;;;;4.13;2.50;;;2.70;99.90;;;;;;4957548;28;20442;-70
2024/01/13 08:38:37;;;;;;;3.10;1.27;;;2.70;99.90;;;;;;4974778;28;20474;-71
2024/01/13 08:41:06;;;;;;;5.90;1.93;;;2.70;99.90;;;;;;4973663;28;20858;-71
2024/01/13 08:43:40;;;;;;;2.60;1.50;;;2.70;99.90;;;;;;4968956;28;20465;-71
2024/01/13 08:46:10;;;;;;;7.60;2.47;;;2.70;99.90;;;;;;4957509;28;20444;-71
2024/01/13 08:52:20;;;;;;;6.00;2.63;;;2.70;99.90;;;;;;4974530;28;20444;-71
2024/01/13 08:54:48;;;;;;;2.23;1.90;;;2.70;99.90;;;;;;4965376;28;20449;-70
2024/01/13 08:57:42;;;;;;;2.17;1.43;;;2.70;99.90;;;;;;4973060;28;20535;-71
2024/01/13 09:00:10;;;;;;;3.17;1.33;;;2.80;99.90;;;;;;4971674;28;20892;-73
2024/01/13 09:03:07;;;;;;;2.50;2.00;;;2.80;99.90;;;;;;4971445;28;20480;-72
2024/01/13 09:05:34;;;;;;;1.80;1.40;;;2.90;99.90;;;;;;4964415;28;20436;-71
2024/01/13 09:08:02;;;;;;;2.70;2.27;;;2.90;99.90;;;;;;4960828;28;20504;-68
2024/01/13 09:11:20;;;;;;;4.33;2.27;;;2.90;99.90;;;;;;4974418;28;20914;-70
2024/01/13 09:13:55;;;;;;;3.23;1.63;;;2.80;99.90;;;;;;4966422;28;20467;-69
2024/01/13 09:16:22;;;;;;;2.57;1.57;;;2.90;99.90;;;;;;4965441;28;20462;-70
2024/01/13 09:18:54;;;;;;;1.90;1.03;;;2.80;99.90;;;;;;4964286;28;20898;-69
2024/01/13 09:21:51;;;;;;;2.50;1.60;;;2.90;99.90;;;;;;4961948;28;20515;-69
2024/01/13 09:24:23;;;;;;;4.07;1.40;;;2.80;99.90;;;;;;4976951;28;20963;-69
2024/01/13 09:26:50;;;;;;;2.37;1.50;;;2.90;99.90;;;;;;4978107;28;20457;-70
2024/01/13 09:29:27;;;;;;;13.13;1.87;;;2.90;99.90;;;;;;4977717;28;20951;-69
2024/01/13 09:31:54;;;;;;;2.47;1.73;;;2.90;99.90;;;;;;4980348;28;20451;-69
2024/01/13 09:34:30;;;;;;;2.23;1.70;;;3.00;99.90;;;;;;4976124;28;20862;-69
2024/01/13 09:36:58;;;;;;;3.10;2.20;;;3.00;99.90;;;;;;4980780;28;20494;-70
2024/01/13 09:39:27;;;;;;;1.40;1.00;;;3.00;99.90;;;;;;4974579;28;20501;-70
2024/01/13 09:41:55;;;;;;;5.20;2.53;;;3.00;99.90;;;;;;4978040;28;20953;-69
2024/01/13 09:44:35;;;;;;;5.63;1.87;;;3.00;99.90;;;;;;4971375;28;20993;-69
2024/01/13 09:47:02;;;;;;;2.30;1.63;;;3.00;99.90;;;;;;4975266;28;20535;-69
2024/01/13 09:49:32;;;;;;;1.80;0.97;;;3.00;99.90;;;;;;4970999;28;20520;-70
2024/01/13 09:52:02;;;;;;;1.57;1.40;;;3.00;99.90;;;;;;4954357;28;20456;-70
2024/01/13 09:54:35;;;;;;;1.70;1.13;;;3.00;99.90;;;;;;4976080;28;20477;-70
2024/01/13 09:57:02;;;;;;;9.10;4.37;;;3.00;99.90;;;;;;4977667;28;20483;-70
2024/01/13 09:59:41;;;;;;;4.13;1.70;;;3.00;99.90;;;;;;4971557;28;20515;-71
2024/01/13 10:02:13;;;;;;;2.77;1.47;;;3.00;99.90;;;;;;4958085;29;20776;-67
2024/01/13 10:05:03;;;;;;;2.33;1.80;;;3.10;99.90;;;;;;4969173;28;20883;-70
2024/01/13 10:07:53;;;;;;;2.03;1.50;;;3.30;99.90;;;;;;4966496;28;20472;-70
2024/01/13 10:10:20;;;;;;;3.80;2.83;;;3.30;99.90;;;;;;4966191;28;20462;-72
2024/01/13 10:12:53;;;;;;;2.90;1.73;;;3.20;99.90;;;;;;4967486;28;20444;-68
2024/01/13 10:15:55;;;;;;;3.00;2.10;;;3.30;99.90;;;;;;4977979;28;20516;-71
2024/01/13 10:18:40;;;;;;;3.03;2.27;;;3.30;99.90;;;;;;4964724;28;20478;-70
2024/01/13 10:21:09;;;;;;;2.63;2.27;;;3.30;99.90;;;;;;4979388;28;20498;-69
2024/01/13 10:23:50;;;;;;;1.30;0.97;;;3.20;99.90;;;;;;4980065;28;20494;-70
2024/01/13 10:26:19;;;;;;;1.00;0.90;;;3.20;99.90;;;;;;4960008;29;20426;-70
2024/01/13 10:28:48;;;;;;;2.77;1.60;;;3.10;99.90;;;;;;4959978;28;20562;-70
2024/01/13 10:31:41;;;;;;;1.70;1.30;;;3.10;99.90;;;;;;4976576;28;20562;-70
2024/01/13 10:34:12;;;;;;;1.23;1.10;;;3.10;99.90;;;;;;4968001;28;20445;-71
2024/01/13 10:36:43;;;;;;;2.30;1.60;;;3.20;99.90;;;;;;4972898;28;20440;-72
2024/01/13 10:39:29;;;;;;;2.00;1.53;;;3.10;99.90;;;;;;4963422;28;20464;-70
2024/01/13 10:41:58;;;;;;;4.93;2.53;;;3.10;99.90;;;;;;4969846;28;20433;-72
2024/01/13 10:44:28;;;;;;;2.33;1.57;;;3.10;99.90;;;;;;4963028;28;20469;-71
2024/01/13 10:47:03;;;;;;;3.23;2.10;;;3.10;99.90;;;;;;4979641;28;20477;-71
2024/01/13 10:49:33;;;;;;;1.57;1.10;;;3.00;99.90;;;;;;4978435;28;20526;-71
2024/01/13 10:52:14;;;;;;;1.17;0.83;;;3.00;99.90;;;;;;4965082;28;20530;-71
2024/01/13 10:54:46;;;;;;;3.13;1.60;;;3.00;99.90;;;;;;4962456;28;20432;-72
2024/01/13 10:57:15;;;;;;;2.53;1.93;;;3.00;99.90;;;;;;4966417;28;20461;-71
2024/01/13 10:59:46;;;;;;;1.57;1.43;;;3.00;99.90;;;;;;4972492;28;20437;-70
2024/01/13 11:02:19;;;;;;;2.60;2.37;;;3.00;99.90;;;;;;4965261;28;20494;-72
2024/01/13 11:04:47;;;;;;;1.50;1.23;;;3.00;99.90;;;;;;4965242;28;20866;-70
2024/01/13 11:07:42;;;;;;;3.30;2.30;;;3.00;99.90;;;;;;4967550;28;20889;-70
2024/01/13 11:10:16;;;;;;;2.53;2.17;;;3.10;99.90;;;;;;4968742;28;20452;-71
2024/01/13 11:12:56;;;;;;;3.17;2.50;;;3.10;99.90;;;;;;4947351;29;20504;-68
2024/01/13 11:15:30;;;;;;;4.10;1.77;;;3.10;99.90;;;;;;4957492;28;20535;-71
2024/01/13 11:18:01;;;;;;;1.70;1.60;;;3.10;99.90;;;;;;4929771;29;20473;-72
2024/01/13 11:21:02;;;;;;;2.00;1.50;;;3.10;99.90;;;;;;4955981;29;20471;-70
2024/01/13 11:23:29;;;;;;;5.83;2.27;;;3.20;99.90;;;;;;4956526;29;20472;-72
2024/01/13 11:26:16;;;;;;;3.07;2.07;;;3.20;99.90;;;;;;4968285;28;20463;-71
2024/01/13 11:28:51;;;;;;;3.20;2.20;;;3.10;99.90;;;;;;4975674;28;20935;-71
2024/01/13 11:31:31;;;;;;;1.27;1.10;;;3.10;99.90;;;;;;4975753;28;20437;-72
2024/01/13 11:34:00;;;;;;;4.93;2.80;;;3.10;99.90;;;;;;4975440;28;20480;-70
2024/01/13 11:39:51;;;;;;;4.40;2.30;;;3.20;99.90;;;;;;4956347;28;20409;-71
2024/01/13 11:42:58;;;;;;;2.73;2.10;;;3.20;99.90;;;;;;4973620;28;20448;-71
2024/01/13 11:45:42;;;;;;;2.97;1.73;;;3.10;99.90;;;;;;4973178;28;20437;-72
2024/01/13 11:52:07;;;;;;;2.97;2.10;;;3.10;99.90;;;;;;4897065;29;20505;-72
2024/01/13 11:54:35;;;;;;;2.73;1.60;;;3.10;99.90;;;;;;4973776;28;20455;-71
2024/01/13 11:57:05;;;;;;;1.80;1.53;;;3.10;99.90;;;;;;4975425;28;20518;-71
2024/01/13 11:59:33;;;;;;;6.30;1.90;;;3.10;99.90;;;;;;4974769;28;20439;-71
2024/01/13 12:02:08;;;;;;;1.87;1.43;;;3.10;99.90;;;;;;4974955;28;20431;-70
2024/01/13 12:04:39;;;;;;;2.70;1.73;;;3.10;99.90;;;;;;4974939;28;20534;-70
2024/01/13 12:09:34;;;;;;;1.50;1.30;;;3.10;99.90;;;;;;5013356;28;20481;-63
2024/01/13 12:12:05;;;;;;;1.97;1.70;;;3.10;99.90;;;;;;5015256;28;20447;-64
2024/01/13 12:14:35;;;;;;;2.57;1.70;;;3.20;99.90;;;;;;5014807;28;20475;-64
2024/01/13 12:17:03;;;;;;;1.80;1.60;;;3.20;99.90;;;;;;5015502;28;20727;-67
2024/01/13 12:19:33;;;;;;;2.80;1.93;;;3.20;99.90;;;;;;5013143;28;20465;-67
2024/01/13 12:22:00;;;;;;;2.60;2.03;;;3.10;99.90;;;;;;5015151;28;20505;-66
2024/01/13 12:24:27;;;;;;;2.63;1.50;;;3.20;99.90;;;;;;5015166;28;20923;-66
2024/01/13 12:26:54;;;;;;;2.37;1.40;;;3.20;99.90;;;;;;5012139;28;20475;-64
2024/01/13 12:29:24;;;;;;;1.83;1.30;;;3.30;99.90;;;;;;5009819;28;20448;-64
2024/01/13 12:31:54;;;;;;;2.57;1.37;;;3.30;99.90;;;;;;5010927;28;20462;-64
2024/01/13 12:34:21;;;;;;;1.83;1.60;;;3.30;99.90;;;;;;5014692;28;20475;-62
2024/01/13 12:36:48;;;;;;;2.00;1.23;;;3.30;99.90;;;;;;5013962;28;20474;-66
2024/01/13 12:39:15;;;;;;;5.53;1.20;;;3.30;99.90;;;;;;5013193;28;20473;-64
2024/01/13 12:41:42;;;;;;;1.70;1.37;;;3.30;99.90;;;;;;5010714;28;20476;-66
2024/01/13 12:44:10;;;;;;;2.17;1.30;;;3.30;99.90;;;;;;5013461;28;20489;-66
2024/01/13 12:46:37;;;;;;;2.13;1.60;;;3.30;99.90;;;;;;5014117;28;20447;-64
2024/01/13 12:49:14;;;;;;;1.40;1.10;;;3.30;99.90;;;;;;5013397;28;20463;-64
2024/01/13 12:51:42;;;;;;;4.00;1.73;;;3.30;99.90;;;;;;5012536;28;20461;-63
2024/01/13 12:54:09;;;;;;;2.13;1.10;;;3.30;99.90;;;;;;5013239;28;20845;-64
2024/01/13 12:56:38;;;;;;;2.03;1.30;;;3.20;99.90;;;;;;5012839;28;20445;-64
2024/01/13 12:59:13;;;;;;;2.20;1.50;;;3.10;99.90;;;;;;5012671;28;20464;-61
2024/01/13 13:01:40;;;;;;;2.70;1.60;;;3.10;99.90;;;;;;5012604;28;20459;-64
2024/01/13 13:04:07;;;;;;;1.30;1.00;;;3.10;99.90;;;;;;5012642;28;20508;-65
2024/01/13 13:06:38;;;;;;;2.83;1.50;;;3.10;99.90;;;;;;5013316;28;20455;-64
2024/01/13 13:09:10;;;;;;;5.90;1.80;;;3.10;99.90;;;;;;5014354;28;20494;-61
2024/01/13 13:11:38;;;;;;;2.37;1.73;;;3.10;99.90;;;;;;5013244;28;20453;-65
2024/01/13 13:14:05;;;;;;;4.30;1.30;;;3.10;99.90;;;;;;5013122;28;20495;-63
2024/01/13 13:16:35;;;;;;;2.47;2.07;;;3.10;99.90;;;;;;5013415;28;20486;-64
2024/01/13 13:19:03;;;;;;;2.80;2.03;;;3.10;99.90;;;;;;5011355;28;20572;-63
2024/01/13 13:21:30;;;;;;;2.10;1.60;;;3.10;99.90;;;;;;5012772;28;20506;-63
2024/01/13 13:24:00;;;;;;;2.60;1.33;;;3.10;99.90;;;;;;5012528;28;20513;-65
2024/01/13 13:26:30;;;;;;;1.80;1.40;;;3.10;99.90;;;;;;5012229;28;20517;-63
2024/01/13 13:28:57;;;;;;;1.67;1.57;;;3.10;99.90;;;;;;5006257;28;20448;-63
2024/01/13 13:31:24;;;;;;;2.03;1.53;;;3.10;99.90;;;;;;5012124;28;20455;-62
2024/01/13 13:33:51;;;;;;;3.70;2.87;;;3.10;99.90;;;;;;5012720;28;20455;-65
2024/01/13 13:36:18;;;;;;;1.73;1.40;;;3.10;99.90;;;;;;5003404;28;20452;-65
2024/01/13 13:38:44;;;;;;;3.60;1.93;;;3.10;99.90;;;;;;5011055;28;20498;-60